Time;durP1;ratioP1;P1;durP2;ratioP2;P2;SDS_P1;SDS_P2;PMS_P1;PMS_P2;Temp;Humidity;BMP_temperature;BMP_pressure;BME280_temperature;BME280_humidity;BME280_pressure;Samples;Min_cycle;Max_cycle;Signal;HPM_P1;HPM_P2
2021/09/23 00:01:43;;;;;;;2.67;2.53;;;;;;;8.30;81.26;100184.16;1696066;83;21021;-89
2021/09/23 00:06:43;;;;;;;4.07;2.50;;;;;;;8.18;81.30;100184.26;1705028;80;20186;-89
2021/09/23 00:09:11;;;;;;;3.07;2.80;;;;;;;8.07;81.69;100185.99;1692359;83;21062;-86
2021/09/23 00:11:37;;;;;;;2.60;2.40;;;;;;;8.05;81.64;100186.67;1703413;83;21085;-89
2021/09/23 00:14:03;;;;;;;4.15;2.70;;;;;;;8.13;81.35;100185.28;1708340;83;21573;-87
2021/09/23 00:16:30;;;;;;;2.62;2.45;;;;;;;8.16;81.20;100182.28;1706413;83;21014;-89
2021/09/23 00:18:56;;;;;;;2.10;2.00;;;;;;;8.17;81.14;100189.23;1698328;83;21022;-87
2021/09/23 00:21:24;;;;;;;2.40;2.20;;;;;;;8.12;81.27;100182.31;1697629;83;20999;-87
2021/09/23 00:23:53;;;;;;;2.87;2.67;;;;;;;8.07;81.45;100185.99;1689346;81;21007;-89
2021/09/23 00:26:23;;;;;;;2.23;1.67;;;;;;;8.06;81.43;100186.98;1668148;84;21463;-90
2021/09/23 00:28:49;;;;;;;1.93;1.83;;;;;;;8.15;81.45;100185.92;1672952;84;21134;-87
2021/09/23 00:31:19;;;;;;;4.70;2.77;;;;;;;8.21;81.11;100189.70;1673850;84;21075;-89
2021/09/23 00:33:48;;;;;;;2.65;2.45;;;;;;;8.22;81.17;100188.72;1678057;84;21069;-90
2021/09/23 00:36:16;;;;;;;3.40;2.90;;;;;;;8.21;81.43;100191.03;1679957;84;21089;-90
2021/09/23 00:38:44;;;;;;;3.80;2.63;;;;;;;8.17;81.30;100183.44;1686997;83;21031;-86
2021/09/23 00:41:12;;;;;;;2.03;1.90;;;;;;;8.18;81.37;100178.95;1682765;83;21110;-87
2021/09/23 00:43:39;;;;;;;2.40;2.15;;;;;;;8.25;81.20;100175.91;1666632;85;21046;-86
2021/09/23 00:46:08;;;;;;;1.83;1.70;;;;;;;8.31;80.91;100181.84;1672803;84;21052;-88
2021/09/23 00:48:35;;;;;;;1.77;1.67;;;;;;;8.30;80.70;100182.01;1631957;87;20996;-86
2021/09/23 00:51:03;;;;;;;1.63;1.53;;;;;;;8.21;80.92;100183.89;1634680;86;21049;-85
2021/09/23 00:53:31;;;;;;;1.90;1.80;;;;;;;8.15;81.01;100182.77;1641217;83;21131;-85
2021/09/23 00:55:59;;;;;;;1.70;1.60;;;;;;;8.15;80.98;100188.58;1632971;85;20989;-88
2021/09/23 00:58:32;;;;;;;3.07;1.57;;;;;;;8.21;80.79;100186.54;1630764;86;21102;-87
2021/09/23 01:00:58;;;;;;;2.67;2.23;;;;;;;8.27;80.66;100183.68;1718594;83;21652;-88
2021/09/23 01:03:24;;;;;;;1.82;1.72;;;;;;;8.28;80.71;100180.03;1711034;81;20975;-88
2021/09/23 01:05:55;;;;;;;1.73;1.63;;;;;;;8.24;80.59;100180.07;1706449;82;21121;-91
2021/09/23 01:08:21;;;;;;;1.92;1.82;;;;;;;8.19;80.70;100183.23;1712868;83;20960;-90
2021/09/23 01:10:47;;;;;;;2.35;2.15;;;;;;;8.16;80.76;100176.97;1711243;82;21042;-85
2021/09/23 01:13:15;;;;;;;2.00;1.72;;;;;;;8.23;80.62;100182.39;1710942;82;21166;-87
2021/09/23 01:15:55;;;;;;;2.20;2.07;;;;;;;8.30;80.46;100181.50;1663956;83;21114;-87
2021/09/23 01:18:25;;;;;;;1.83;1.73;;;;;;;8.30;80.65;100188.14;1705638;82;21045;-86
2021/09/23 01:20:51;;;;;;;2.40;2.30;;;;;;;8.25;80.73;100185.69;1692069;83;21448;-86
2021/09/23 01:23:19;;;;;;;3.27;3.07;;;;;;;8.19;80.73;100184.09;1677519;84;20987;-87
2021/09/23 01:25:47;;;;;;;2.43;2.23;;;;;;;8.16;80.51;100179.63;1709685;81;21079;-90
2021/09/23 01:28:13;;;;;;;2.37;2.10;;;;;;;8.13;80.46;100186.61;1678983;83;21108;-86
2021/09/23 01:30:47;;;;;;;2.20;2.10;;;;;;;8.12;80.70;100182.31;1649103;85;21095;-88
2021/09/23 01:33:13;;;;;;;1.90;1.80;;;;;;;8.15;80.98;100184.09;1716589;82;21075;-88
2021/09/23 01:35:40;;;;;;;2.70;2.50;;;;;;;8.18;81.11;100181.60;1711333;83;21066;-90
2021/09/23 01:38:07;;;;;;;;;;;;;;;8.19;81.08;100181.91;1717306;82;21066;-89
2021/09/23 01:40:37;;;;;;;3.03;2.10;;;;;;;8.22;81.05;100182.89;1743935;82;20119;-88
2021/09/23 01:43:05;;;;;;;2.60;2.27;;;;;;;8.22;81.14;100184.23;1713878;82;21028;-87
2021/09/23 01:45:31;;;;;;;2.77;2.60;;;;;;;8.22;80.93;100183.41;1693682;83;21000;-87
2021/09/23 01:47:58;;;;;;;;;;;;;;;8.16;80.66;100184.94;1710684;81;21086;-88
2021/09/23 01:50:24;;;;;;;3.50;3.30;;;;;;;8.10;80.93;100185.14;1682227;82;20090;-85
2021/09/23 01:52:54;;;;;;;2.73;2.53;;;;;;;8.04;81.09;100188.98;1711752;82;21034;-87
2021/09/23 01:55:22;;;;;;;3.67;2.70;;;;;;;8.05;80.98;100186.16;1713878;83;21057;-87
2021/09/23 01:57:49;;;;;;;2.23;2.13;;;;;;;8.12;80.87;100187.62;1670735;84;21151;-85
2021/09/23 02:00:17;;;;;;;3.12;2.92;;;;;;;8.16;80.88;100182.28;1721924;82;21600;-86
2021/09/23 02:02:46;;;;;;;4.00;3.70;;;;;;;8.17;80.65;100179.45;1708690;83;21565;-86
2021/09/23 02:05:21;;;;;;;3.37;3.17;;;;;;;8.12;80.91;100184.46;1688690;84;21054;-86
2021/09/23 02:07:47;;;;;;;;;;;;;;;8.09;81.20;100188.78;1721980;82;21028;-87
2021/09/23 02:10:15;;;;;;;3.47;3.27;;;;;;;8.10;81.36;100186.95;1706097;82;20144;-87
2021/09/23 02:14:23;;;;;;;3.73;3.43;;;;;;;8.14;81.46;100186.95;1793373;78;22872;-73
2021/09/23 02:16:49;;;;;;;3.98;3.58;;;;;;;8.12;81.38;100186.30;1759730;80;21044;-76
2021/09/23 02:19:37;;;;;;;;;;;;;;;8.19;81.18;100189.87;1766557;80;21033;-71
2021/09/23 02:22:05;;;;;;;2.60;2.40;;;;;;;8.23;81.19;100184.56;1769972;80;20431;-73
2021/09/23 02:24:32;;;;;;;3.00;2.80;;;;;;;8.21;81.17;100185.21;1694497;82;21272;-72
2021/09/23 02:27:00;;;;;;;3.70;3.40;;;;;;;8.21;81.24;100176.43;1723187;82;21120;-69
2021/09/23 02:29:26;;;;;;;2.55;2.35;;;;;;;8.18;81.01;100189.06;1712568;82;21211;-66
2021/09/23 02:31:53;;;;;;;;;;;;;;;8.15;80.85;100185.92;1722184;82;21052;-66
2021/09/23 02:34:19;;;;;;;3.20;3.00;;;;;;;8.10;80.36;100185.14;1712318;82;20156;-67
2021/09/23 02:36:45;;;;;;;3.08;2.77;;;;;;;8.05;80.32;100184.02;1705736;84;21058;-75
2021/09/23 02:39:12;;;;;;;2.70;2.50;;;;;;;8.09;80.43;100176.02;1706868;83;21094;-71
2021/09/23 02:41:39;;;;;;;3.43;3.20;;;;;;;8.16;80.52;100175.64;1706724;83;21035;-68
2021/09/23 02:44:05;;;;;;;3.20;3.05;;;;;;;8.14;80.34;100169.18;1707059;82;21051;-74
2021/09/23 02:46:34;;;;;;;3.47;3.27;;;;;;;8.05;81.00;100172.07;1707156;82;21031;-76
2021/09/23 02:49:01;;;;;;;4.50;3.00;;;;;;;8.05;81.00;100172.07;1704900;82;20995;-66
2021/09/23 02:51:29;;;;;;;3.30;3.10;;;;;;;8.03;80.92;100169.59;1705768;82;21565;-67
2021/09/23 02:53:55;;;;;;;3.10;2.90;;;;;;;8.09;80.99;100170.71;1705203;82;21555;-63
2021/09/23 02:56:22;;;;;;;3.10;2.87;;;;;;;8.15;80.82;100165.50;1694011;83;21064;-64
2021/09/23 02:58:50;;;;;;;4.43;3.00;;;;;;;8.21;80.46;100165.30;1653436;84;21666;-70
2021/09/23 03:01:19;;;;;;;3.85;3.55;;;;;;;8.23;80.61;100166.45;1682198;83;21018;-63
2021/09/23 03:03:46;;;;;;;3.70;3.50;;;;;;;8.19;80.73;100163.33;1661576;86;21572;-65
2021/09/23 03:06:13;;;;;;;;;;;;;;;8.16;80.69;100162.37;1673202;86;21074;-63
2021/09/23 03:08:40;;;;;;;3.15;2.95;;;;;;;8.16;80.69;100167.68;1674452;84;20130;-71
2021/09/23 03:11:07;;;;;;;4.03;3.73;;;;;;;8.14;80.38;100170.50;1670725;84;21094;-67
2021/09/23 03:13:35;;;;;;;2.93;2.73;;;;;;;8.13;80.08;100170.17;1614292;87;21145;-67
2021/09/23 03:16:01;;;;;;;3.95;3.58;;;;;;;8.15;80.16;100172.65;1613737;87;22115;-68
2021/09/23 03:18:27;;;;;;;3.85;3.65;;;;;;;8.11;80.11;100172.69;1613060;87;21595;-67
2021/09/23 03:20:56;;;;;;;4.43;4.03;;;;;;;8.02;80.33;100179.05;1606996;88;21107;-72
2021/09/23 03:23:24;;;;;;;4.67;3.47;;;;;;;7.96;80.77;100177.41;1612859;86;21584;-70
2021/09/23 03:25:53;;;;;;;3.17;2.90;;;;;;;7.96;81.12;100173.43;1597673;87;21183;-69
2021/09/23 03:28:21;;;;;;;4.73;3.77;;;;;;;8.03;81.26;100172.75;1621208;87;21560;-66
2021/09/23 03:30:48;;;;;;;3.97;3.53;;;;;;;8.06;80.91;100175.87;1609697;87;21162;-64
2021/09/23 03:33:14;;;;;;;3.62;3.33;;;;;;;8.08;80.76;100173.02;1622256;86;21127;-64
2021/09/23 03:35:40;;;;;;;3.53;3.23;;;;;;;8.13;80.75;100175.98;1619050;87;21604;-71
2021/09/23 03:38:08;;;;;;;2.92;2.72;;;;;;;8.12;80.73;100174.35;1626364;87;21151;-66
2021/09/23 03:40:34;;;;;;;5.67;3.93;;;;;;;8.11;80.74;100172.17;1623669;87;21059;-65
2021/09/23 03:43:02;;;;;;;4.07;3.80;;;;;;;8.11;80.72;100172.17;1623652;87;21606;-63
2021/09/23 03:45:30;;;;;;;4.20;3.90;;;;;;;8.11;80.55;100176.16;1623903;85;21470;-64
2021/09/23 03:47:56;;;;;;;4.10;3.80;;;;;;;8.08;80.35;100174.35;1635280;86;21498;-69
2021/09/23 03:50:22;;;;;;;6.00;3.98;;;;;;;8.04;80.39;100177.04;1598024;89;21061;-69
2021/09/23 03:52:50;;;;;;;4.40;4.07;;;;;;;8.04;80.57;100175.20;1619658;86;21117;-69
2021/09/23 03:55:16;;;;;;;4.08;3.77;;;;;;;8.08;80.30;100183.16;1617043;86;21031;-71
2021/09/23 03:57:45;;;;;;;4.33;3.93;;;;;;;8.09;80.18;100182.14;1598308;88;21074;-76
2021/09/23 04:00:17;;;;;;;5.47;4.97;;;;;;;8.08;79.93;100180.98;1588687;88;21069;-68
2021/09/23 04:02:45;;;;;;;3.60;3.33;;;;;;;8.04;80.03;100175.20;1608720;87;21583;-74
2021/09/23 04:05:11;;;;;;;3.42;3.17;;;;;;;8.05;80.23;100174.22;1586150;89;21056;-70
2021/09/23 04:07:38;;;;;;;4.87;3.63;;;;;;;8.10;80.47;100175.84;1603721;87;21722;-72
2021/09/23 04:10:08;;;;;;;5.03;4.53;;;;;;;8.13;80.28;100178.64;1596277;87;21096;-72
2021/09/23 04:12:38;;;;;;;5.00;4.60;;;;;;;8.14;79.90;100177.66;1617096;87;21056;-71
2021/09/23 04:15:07;;;;;;;4.13;3.83;;;;;;;8.09;80.01;100182.66;1595003;88;21036;-72
2021/09/23 04:17:35;;;;;;;5.87;5.23;;;;;;;8.04;79.94;100177.04;1620324;87;21061;-68
2021/09/23 04:20:03;;;;;;;5.00;4.60;;;;;;;8.04;79.96;100179.69;1622670;87;21856;-68
2021/09/23 04:22:35;;;;;;;4.60;4.23;;;;;;;8.08;79.92;100175.68;1617776;86;21075;-67
2021/09/23 04:25:04;;;;;;;5.00;4.50;;;;;;;8.11;79.83;100176.66;1620654;86;21581;-71
2021/09/23 04:27:32;;;;;;;4.83;4.53;;;;;;;8.11;79.67;100176.16;1630716;86;21009;-73
2021/09/23 04:29:58;;;;;;;4.12;3.80;;;;;;;7.79;79.72;100121.46;1629322;86;21052;-75
2021/09/23 04:32:24;;;;;;;5.05;4.50;;;;;;;8.16;79.67;100180.95;1629980;86;21072;-74
2021/09/23 04:34:52;;;;;;;6.20;4.13;;;;;;;8.18;79.51;100185.58;1609516;83;21721;-67
2021/09/23 04:37:18;;;;;;;5.00;4.50;;;;;;;8.20;79.63;100183.58;1654631;85;21539;-70
2021/09/23 04:39:47;;;;;;;5.00;4.60;;;;;;;8.20;79.70;100182.25;1644515;85;21061;-70
2021/09/23 04:42:15;;;;;;;4.47;4.17;;;;;;;8.21;79.68;100183.89;1631086;86;21689;-67
2021/09/23 04:44:42;;;;;;;4.43;4.13;;;;;;;8.24;79.46;100180.89;1636285;85;21500;-64
2021/09/23 04:47:09;;;;;;;4.07;3.77;;;;;;;8.30;79.17;100183.34;1652450;85;21173;-70
2021/09/23 04:49:40;;;;;;;3.97;3.67;;;;;;;8.29;78.54;100182.52;1647646;85;21612;-64
2021/09/23 04:52:08;;;;;;;4.33;4.00;;;;;;;8.30;78.88;100186.81;1644784;86;21082;-64
2021/09/23 04:54:34;;;;;;;6.00;3.00;;;;;;;7.98;78.70;100132.12;1639105;85;21163;-71
2021/09/23 04:57:00;;;;;;;4.50;4.03;;;;;;;8.33;78.56;100179.02;1603522;87;21110;-71
2021/09/23 04:59:27;;;;;;;4.35;3.95;;;;;;;8.31;78.44;100195.63;1639876;87;21083;-67
2021/09/23 05:01:55;;;;;;;5.00;3.93;;;;;;;8.25;78.57;100190.52;1679850;83;21122;-69
2021/09/23 05:04:22;;;;;;;4.58;4.28;;;;;;;8.19;78.87;100192.53;1694978;83;21096;-68
2021/09/23 05:06:48;;;;;;;18.12;12.53;;;;;;;8.20;79.31;100184.91;1658560;85;21677;-64
2021/09/23 05:09:15;;;;;;;5.23;4.70;;;;;;;8.23;79.14;100185.89;1693368;83;21532;-65
2021/09/23 05:11:45;;;;;;;4.23;3.83;;;;;;;8.25;79.32;100184.36;1693048;83;21040;-64
2021/09/23 05:14:17;;;;;;;4.10;3.80;;;;;;;8.28;79.04;100180.03;1686738;85;21085;-65
2021/09/23 05:16:45;;;;;;;6.20;3.70;;;;;;;8.31;78.89;100183.16;1695048;83;21002;-67
2021/09/23 05:19:13;;;;;;;4.90;3.87;;;;;;;8.35;78.58;100183.64;1689226;83;21317;-64
2021/09/23 05:21:43;;;;;;;4.58;4.17;;;;;;;8.41;78.48;100182.11;1686803;83;21531;-65
2021/09/23 05:24:12;;;;;;;4.73;4.33;;;;;;;8.43;78.53;100189.42;1688707;83;21005;-65
2021/09/23 05:26:39;;;;;;;3.73;3.50;;;;;;;8.43;78.76;100182.27;1694649;84;21575;-69
2021/09/23 05:29:07;;;;;;;4.27;3.87;;;;;;;8.44;78.10;100187.07;1694180;83;21029;-69
2021/09/23 05:31:35;;;;;;;4.25;3.85;;;;;;;8.48;77.83;100185.73;1686845;83;21077;-70
2021/09/23 05:34:04;;;;;;;6.30;3.90;;;;;;;8.52;77.66;100183.05;1676412;83;21049;-72
2021/09/23 05:36:31;;;;;;;3.50;3.30;;;;;;;8.58;77.59;100186.30;1689769;84;21138;-73
2021/09/23 05:38:59;;;;;;;3.87;3.57;;;;;;;8.61;77.27;100177.98;1693543;83;21484;-71
2021/09/23 05:41:27;;;;;;;5.30;3.87;;;;;;;8.61;77.05;100186.44;1685172;83;21088;-69
2021/09/23 05:43:53;;;;;;;;;;;;;;;8.01;77.13;100096.45;1698336;84;21122;-74
2021/09/23 05:46:19;;;;;;;3.97;3.57;;;;;;;8.60;77.32;100183.48;1695794;84;20128;-73
2021/09/23 05:48:45;;;;;;;;;;;;;;;8.60;77.24;100187.45;1698309;84;21053;-69
2021/09/23 05:51:11;;;;;;;4.33;4.03;;;;;;;8.66;77.06;100184.89;1696011;84;20097;-71
2021/09/23 05:53:37;;;;;;;3.40;3.10;;;;;;;8.69;76.96;100191.19;1695556;84;21069;-64
2021/09/23 05:56:04;;;;;;;4.05;3.75;;;;;;;8.73;76.12;100185.02;1695456;84;21659;-67
2021/09/23 05:58:31;;;;;;;3.43;3.23;;;;;;;8.79;76.39;100187.45;1692434;84;21088;-73
2021/09/23 06:00:58;;;;;;;4.37;3.97;;;;;;;8.81;76.09;100182.78;1692078;83;21090;-67
2021/09/23 06:03:24;;;;;;;4.67;4.12;;;;;;;8.80;75.99;100187.28;1694951;85;21017;-78
2021/09/23 06:05:50;;;;;;;4.75;4.28;;;;;;;8.76;76.07;100188.66;1658738;85;21627;-64
2021/09/23 06:08:16;;;;;;;4.62;4.20;;;;;;;8.75;77.26;100190.97;1668296;84;21011;-67
2021/09/23 06:10:44;;;;;;;2.53;2.43;;;;;;;8.80;76.77;100189.94;1666393;86;21101;-66
2021/09/23 06:13:10;;;;;;;3.77;3.47;;;;;;;8.87;76.36;100188.70;1667942;83;21089;-71
2021/09/23 06:15:38;;;;;;;2.00;1.90;;;;;;;8.93;75.98;100190.14;1624269;87;21294;-64
2021/09/23 06:18:04;;;;;;;2.60;2.33;;;;;;;8.98;75.73;100190.09;1668358;84;21102;-68
2021/09/23 06:20:32;;;;;;;2.97;2.77;;;;;;;9.02;76.06;100192.20;1668488;86;21660;-68
2021/09/23 06:22:58;;;;;;;3.55;2.47;;;;;;;9.05;75.89;100197.67;1661762;84;21726;-71
2021/09/23 06:25:25;;;;;;;3.22;3.02;;;;;;;9.08;75.43;100192.83;1615457;88;21436;-71
2021/09/23 06:27:53;;;;;;;2.93;2.73;;;;;;;9.11;75.21;100192.44;1624605;86;21031;-62
2021/09/23 06:30:21;;;;;;;2.10;2.00;;;;;;;9.16;74.72;100191.91;1635196;85;21369;-62
2021/09/23 06:32:49;;;;;;;3.60;2.40;;;;;;;9.20;74.39;100186.55;1639747;85;21121;-65
2021/09/23 06:35:15;;;;;;;3.00;2.80;;;;;;;9.26;74.48;100188.97;1644203;85;21118;-68
2021/09/23 06:37:43;;;;;;;3.73;1.90;;;;;;;9.28;74.05;100188.28;1604738;88;21079;-71
2021/09/23 06:40:12;;;;;;;2.50;1.87;;;;;;;9.28;73.98;100193.60;1632812;88;21040;-72
2021/09/23 06:42:42;;;;;;;0.83;0.83;;;;;;;9.28;74.09;100195.75;1663203;81;85567;-89
2021/09/23 06:45:11;;;;;;;0.93;0.90;;;;;;;9.31;74.11;100202.55;1722571;82;21509;-87
2021/09/23 06:47:39;;;;;;;0.70;0.70;;;;;;;9.34;73.89;100196.85;1697332;83;21129;-90
2021/09/23 06:50:10;;;;;;;0.60;0.37;;;;;;;9.40;73.65;100189.97;1694923;83;21255;-88
2021/09/23 06:52:39;;;;;;;0.43;0.30;;;;;;;9.45;73.17;100192.40;1720486;82;21743;-87
2021/09/23 06:55:10;;;;;;;0.50;0.50;;;;;;;9.50;73.07;100193.19;1689546;83;21533;-89
2021/09/23 06:57:36;;;;;;;0.50;0.43;;;;;;;9.48;72.55;100196.03;1682996;83;21008;-89
2021/09/23 07:00:23;;;;;;;0.53;0.53;;;;;;;9.50;72.96;100192.68;1681332;83;21133;-89
2021/09/23 07:03:08;;;;;;;0.95;0.82;;;;;;;9.53;71.75;100192.32;1683585;83;21058;-87
2021/09/23 07:05:43;;;;;;;3.10;1.07;;;;;;;9.59;71.88;100193.90;1684014;83;21554;-87
2021/09/23 07:08:14;;;;;;;0.70;0.50;;;;;;;9.61;71.85;100191.91;1680839;83;21371;-89
2021/09/23 07:10:41;;;;;;;0.63;0.47;;;;;;;9.57;71.50;100183.47;1680607;83;21664;-90
2021/09/23 07:13:09;;;;;;;0.43;0.43;;;;;;;9.56;71.68;100183.13;1692741;83;20983;-90
2021/09/23 07:15:35;;;;;;;0.80;0.75;;;;;;;9.59;72.14;100189.91;1689980;84;21161;-88
2021/09/23 07:18:03;;;;;;;0.50;0.50;;;;;;;9.68;72.06;100180.33;1713774;83;21121;-88
2021/09/23 07:20:30;;;;;;;3.87;1.92;;;;;;;9.79;69.71;100182.99;1712640;83;21015;-88
2021/09/23 07:22:57;;;;;;;0.40;0.30;;;;;;;9.79;69.58;100185.66;1694817;84;21065;-89
2021/09/23 07:25:25;;;;;;;1.33;0.60;;;;;;;9.75;69.73;100187.05;1680629;83;21094;-83
2021/09/23 07:27:53;;;;;;;0.70;0.70;;;;;;;9.74;69.48;100190.22;1700333;82;21075;-85
2021/09/23 07:30:24;;;;;;;1.80;1.40;;;;;;;9.74;69.60;100188.89;1704559;84;20952;-89
2021/09/23 07:32:52;;;;;;;0.87;0.80;;;;;;;9.74;69.69;100185.41;1706621;84;21111;-86
2021/09/23 07:35:19;;;;;;;0.40;0.40;;;;;;;9.75;69.41;100183.88;1708421;83;21044;-89
2021/09/23 07:37:45;;;;;;;1.00;0.85;;;;;;;9.79;69.43;100179.00;1705107;83;21125;-87
2021/09/23 07:40:13;;;;;;;0.97;0.53;;;;;;;9.85;69.98;100182.27;1691059;84;21154;-88
2021/09/23 07:42:40;;;;;;;0.80;0.80;;;;;;;9.86;69.42;100187.89;1718894;83;21074;-89
2021/09/23 07:45:09;;;;;;;3.90;0.50;;;;;;;9.85;69.61;100178.27;1686013;84;21026;-91
2021/09/23 07:47:35;;;;;;;1.90;0.60;;;;;;;9.85;68.96;100182.27;1720467;83;21050;-90
2021/09/23 07:50:03;;;;;;;1.37;0.30;;;;;;;9.84;68.94;100183.78;1666208;85;21176;-88
2021/09/23 07:52:29;;;;;;;0.90;0.90;;;;;;;9.83;69.46;100182.97;1720775;83;21112;-89
2021/09/23 07:54:57;;;;;;;0.70;0.53;;;;;;;9.89;68.96;100181.39;1711822;83;21086;-89
2021/09/23 07:57:23;;;;;;;2.65;0.30;;;;;;;9.99;68.67;100183.75;1716585;81;21074;-88
2021/09/23 07:59:50;;;;;;;;;;;;;;;9.99;67.95;100183.23;1718031;83;21097;-90
2021/09/23 08:02:15;;;;;;;2.10;0.97;;;;;;;9.91;68.20;100188.16;1675242;83;20227;-89
2021/09/23 08:04:42;;;;;;;1.10;0.90;;;;;;;9.70;68.96;100188.95;1681589;85;21161;-89
2021/09/23 08:07:08;;;;;;;;;;;;;;;9.59;69.50;100180.59;1680084;84;21600;-89
2021/09/23 08:09:46;;;;;;;2.20;1.00;;;;;;;9.53;70.42;100179.02;1709243;83;20688;-88
2021/09/23 08:12:16;;;;;;;4.27;0.80;;;;;;;9.40;70.08;100173.52;1688608;84;21038;-88
2021/09/23 08:15:05;;;;;;;2.17;0.40;;;;;;;9.27;70.47;100178.16;1677643;84;21113;-88
2021/09/23 08:17:50;;;;;;;0.42;0.35;;;;;;;9.23;70.68;100174.22;1629380;87;21000;-88
2021/09/23 08:20:18;;;;;;;3.43;1.00;;;;;;;9.15;70.98;100179.13;1629443;85;21026;-90
2021/09/23 08:22:48;;;;;;;2.13;0.60;;;;;;;9.11;71.82;100184.98;1663163;83;21155;-88
2021/09/23 08:25:15;;;;;;;1.67;1.00;;;;;;;9.09;71.23;100176.36;1680093;83;21067;-88
2021/09/23 08:27:41;;;;;;;0.70;0.70;;;;;;;9.10;71.20;100176.19;1701243;83;21010;-87
2021/09/23 08:30:08;;;;;;;2.58;0.90;;;;;;;9.18;70.71;100179.25;1677092;84;21093;-87
2021/09/23 08:32:35;;;;;;;1.37;0.60;;;;;;;9.22;70.47;100177.06;1706357;83;21165;-89
2021/09/23 08:35:06;;;;;;;;;;;;;;;9.26;71.09;100173.83;1713744;83;21085;-88
2021/09/23 08:37:35;;;;;;;1.50;0.93;;;;;;;9.28;71.83;100171.81;1691512;83;20265;-89
2021/09/23 08:40:09;;;;;;;1.80;1.00;;;;;;;9.25;71.93;100169.54;1666857;84;21037;-89
2021/09/23 08:42:35;;;;;;;2.07;0.90;;;;;;;9.31;72.06;100173.30;1694661;83;21138;-90
2021/09/23 08:45:03;;;;;;;2.20;1.00;;;;;;;9.40;71.69;100172.20;1694835;84;21089;-89
2021/09/23 08:47:33;;;;;;;0.70;0.70;;;;;;;9.55;72.08;100167.68;1692255;83;21137;-88
2021/09/23 08:50:03;;;;;;;1.13;0.87;;;;;;;9.73;71.48;100166.45;1692222;83;21093;-86
2021/09/23 08:52:29;;;;;;;2.20;1.67;;;;;;;9.80;69.88;100167.87;1707520;83;21234;-88
2021/09/23 08:54:56;;;;;;;2.03;1.27;;;;;;;9.79;70.29;100166.20;1700168;83;21060;-85
2021/09/23 08:57:25;;;;;;;1.27;1.17;;;;;;;9.74;71.00;100163.60;1671932;83;21683;-88
2021/09/23 08:59:52;;;;;;;1.60;1.47;;;;;;;9.69;71.13;100160.67;1694753;83;21026;-88
2021/09/23 09:02:23;;;;;;;1.42;1.32;;;;;;;9.60;71.66;100167.62;1695742;83;21006;-88
2021/09/23 09:05:18;;;;;;;1.50;0.97;;;;;;;9.54;71.85;100174.00;1694945;83;21049;-88
2021/09/23 09:08:06;;;;;;;1.63;1.53;;;;;;;9.55;73.13;100173.00;1693354;84;21093;-88
2021/09/23 09:10:38;;;;;;;4.23;1.23;;;;;;;9.52;72.67;100176.53;1695508;83;21077;-89
2021/09/23 09:13:09;;;;;;;1.50;1.20;;;;;;;9.51;74.15;100178.38;1709272;83;21079;-90
2021/09/23 09:15:44;;;;;;;1.20;1.10;;;;;;;9.48;73.56;100177.92;1713822;83;21089;-88
2021/09/23 09:18:22;;;;;;;1.52;1.42;;;;;;;9.45;74.33;100173.77;1690658;83;21014;-89
2021/09/23 09:21:04;;;;;;;1.17;1.00;;;;;;;9.48;74.69;100172.09;1720652;83;21533;-89
2021/09/23 09:24:00;;;;;;;1.80;1.70;;;;;;;9.57;73.58;100171.97;1667487;83;21635;-86
2021/09/23 09:26:36;;;;;;;1.50;1.37;;;;;;;9.60;73.71;100167.62;1664685;84;21022;-89
2021/09/23 09:29:07;;;;;;;2.00;1.02;;;;;;;9.61;73.68;100171.95;1662939;85;21134;-84
2021/09/23 09:31:37;;;;;;;0.50;0.40;;;;;;;9.64;73.88;100160.91;1667437;84;21184;-84
2021/09/23 09:34:05;;;;;;;1.00;0.30;;;;;;;9.65;72.07;100165.23;1641893;85;21887;-83
2021/09/23 09:36:41;;;;;;;0.60;0.20;;;;;;;9.69;71.87;100166.51;1670900;85;21038;-84
2021/09/23 09:39:16;;;;;;;0.60;0.30;;;;;;;9.72;71.95;100164.30;1668087;84;21077;-81
2021/09/23 09:41:48;;;;;;;1.17;0.70;;;;;;;9.73;71.78;100159.80;1692227;84;21037;-84
2021/09/23 09:44:18;;;;;;;2.23;0.80;;;;;;;9.71;71.29;100161.30;1713860;83;21704;-88
2021/09/23 09:46:53;;;;;;;1.62;0.40;;;;;;;9.70;71.26;100163.66;1696749;84;21101;-85
2021/09/23 09:49:24;;;;;;;1.30;0.50;;;;;;;9.59;71.30;100140.67;1667342;84;21746;-84
2021/09/23 09:51:58;;;;;;;0.33;0.33;;;;;;;9.79;71.64;100160.88;1717898;83;21141;-87
2021/09/23 09:54:25;;;;;;;1.53;0.50;;;;;;;9.90;71.13;100155.07;1686815;84;21089;-85
2021/09/23 09:56:59;;;;;;;0.72;0.72;;;;;;;9.90;70.65;100159.88;1697591;83;21065;-85
2021/09/23 09:59:28;;;;;;;0.70;0.70;;;;;;;9.86;70.24;100158.61;1717946;83;21636;-85
2021/09/23 10:01:57;;;;;;;1.50;0.60;;;;;;;9.90;70.54;100159.06;1718307;83;21098;-86
2021/09/23 10:04:29;;;;;;;2.10;0.60;;;;;;;9.99;70.50;100161.11;1693712;83;21034;-86
2021/09/23 10:07:02;;;;;;;1.15;0.68;;;;;;;10.04;71.23;100162.68;1719214;83;21054;-83
2021/09/23 10:09:34;;;;;;;1.07;0.67;;;;;;;10.13;70.69;100158.88;1713347;83;21105;-85
2021/09/23 10:12:02;;;;;;;1.57;0.90;;;;;;;10.29;70.46;100161.82;1710978;82;21388;-86
2021/09/23 10:14:33;;;;;;;1.00;0.85;;;;;;;10.39;69.90;100157.53;1698877;83;21112;-85
2021/09/23 10:17:01;;;;;;;0.90;0.85;;;;;;;10.38;69.30;100154.53;1675339;84;21145;-86
2021/09/23 10:19:29;;;;;;;0.93;0.85;;;;;;;10.33;69.62;100151.94;1699393;83;21151;-83
2021/09/23 10:21:56;;;;;;;;;;;;;;;10.26;70.24;100160.34;1705580;83;21015;-82
2021/09/23 10:24:24;;;;;;;0.80;0.80;;;;;;;10.17;70.70;100160.18;1647849;84;20133;-84
2021/09/23 10:26:52;;;;;;;0.88;0.70;;;;;;;10.06;71.04;100165.49;1669450;84;21105;-83
2021/09/23 10:29:19;;;;;;;0.47;0.43;;;;;;;10.05;70.84;100163.83;1665312;84;21114;-85
2021/09/23 10:31:45;;;;;;;0.70;0.50;;;;;;;10.04;71.18;100167.52;1709504;83;21274;-83
2021/09/23 10:34:13;;;;;;;0.47;0.43;;;;;;;9.95;71.60;100165.98;1703612;83;21002;-84
2021/09/23 10:36:42;;;;;;;0.40;0.40;;;;;;;9.77;71.79;100164.24;1691709;83;21181;-83
2021/09/23 10:39:11;;;;;;;1.10;0.43;;;;;;;9.63;72.52;100168.59;1661483;84;21126;-84
2021/09/23 10:41:41;;;;;;;0.23;0.23;;;;;;;9.54;72.70;100172.67;1674015;85;21069;-84
2021/09/23 10:44:08;;;;;;;1.23;0.70;;;;;;;9.53;72.77;100177.69;1641764;86;21122;-83
2021/09/23 10:46:36;;;;;;;0.40;0.30;;;;;;;9.52;73.02;100172.55;1696169;83;21079;-81
2021/09/23 10:49:06;;;;;;;0.83;0.20;;;;;;;9.50;73.47;100170.06;1675034;84;21722;-85
2021/09/23 10:51:36;;;;;;;0.20;0.20;;;;;;;9.48;72.98;100166.77;1704671;83;21101;-84
2021/09/23 10:54:08;;;;;;;1.00;0.30;;;;;;;9.42;73.17;100160.86;1676076;83;21288;-85
2021/09/23 10:56:40;;;;;;;0.30;0.23;;;;;;;9.43;73.39;100166.48;1701817;83;21025;-85
2021/09/23 10:59:11;;;;;;;1.60;0.20;;;;;;;9.48;73.81;100169.42;1697411;83;21073;-86
2021/09/23 11:01:39;;;;;;;0.73;0.33;;;;;;;9.58;74.09;100165.66;1699183;83;21002;-87
2021/09/23 11:04:07;;;;;;;2.30;0.47;;;;;;;9.69;74.09;100159.86;1684399;83;21406;-83
2021/09/23 11:06:42;;;;;;;2.20;0.37;;;;;;;9.80;73.29;100161.22;1695048;83;21109;-84
2021/09/23 11:09:25;;;;;;;0.47;0.17;;;;;;;9.85;73.28;100164.96;1699844;83;21603;-84
2021/09/23 11:12:03;;;;;;;0.30;0.30;;;;;;;9.85;72.68;100166.30;1699084;83;20951;-84
2021/09/23 11:14:32;;;;;;;0.40;0.40;;;;;;;9.81;71.30;100165.52;1699230;83;21536;-84
2021/09/23 11:17:00;;;;;;;1.10;0.70;;;;;;;9.72;70.95;100171.47;1676078;84;21026;-82
2021/09/23 11:19:32;;;;;;;1.00;0.73;;;;;;;9.64;71.45;100164.91;1698534;83;21580;-83
2021/09/23 11:22:00;;;;;;;1.00;0.70;;;;;;;9.62;72.14;100167.74;1712831;83;21380;-85
2021/09/23 11:24:29;;;;;;;3.83;0.97;;;;;;;9.63;72.25;100168.08;1722011;83;21592;-85
2021/09/23 11:26:56;;;;;;;1.47;0.83;;;;;;;9.65;72.24;100172.70;1692362;83;21098;-83
2021/09/23 11:29:28;;;;;;;2.57;0.97;;;;;;;9.66;71.94;100170.38;1706621;82;21130;-86
2021/09/23 11:31:57;;;;;;;1.10;0.60;;;;;;;9.63;72.23;100166.75;1681488;84;21006;-84
2021/09/23 11:34:36;;;;;;;1.10;1.00;;;;;;;9.55;72.41;100172.19;1688974;84;21010;-85
2021/09/23 11:37:08;;;;;;;2.53;1.07;;;;;;;9.47;73.21;100169.09;1703404;84;21117;-83
2021/09/23 11:39:37;;;;;;;3.20;1.37;;;;;;;9.46;74.12;100169.30;1716738;83;21138;-81
2021/09/23 11:42:14;;;;;;;2.43;0.80;;;;;;;9.46;74.49;100166.13;1702986;83;21216;-82
2021/09/23 11:44:43;;;;;;;1.87;0.50;;;;;;;9.48;74.12;100166.77;1705178;83;21143;-82
2021/09/23 11:47:13;;;;;;;0.80;0.50;;;;;;;9.49;73.18;100169.76;1650159;85;21086;-82
2021/09/23 11:49:43;;;;;;;0.80;0.20;;;;;;;9.47;72.64;100157.12;1677801;84;21157;-82